Time;durP1;ratioP1;P1;durP2;ratioP2;P2;SDS_P1;SDS_P2;PMS_P1;PMS_P2;Temp;Humidity;BMP_temperature;BMP_pressure;BME280_temperature;BME280_humidity;BME280_pressure;Samples;Min_cycle;Max_cycle;Signal;HPM_P1;HPM_P2
2022/01/29 03:48:39;;;;;;;0.50;0.50;;;;;;;;;;1790101;78;22921;-60
2022/01/29 03:51:05;;;;;;;0.53;0.53;;;;;;;;;;1754078;80;21035;-60
2022/01/29 03:53:32;;;;;;;0.50;0.50;;;;;;;;;;1772333;80;22997;-58
2022/01/29 03:55:59;;;;;;;1.32;0.90;;;;;;;;;;1768501;80;21497;-58
2022/01/29 03:58:25;;;;;;;0.72;0.62;;;;;;;;;;1768483;80;21549;-58
2022/01/29 04:00:52;;;;;;;1.05;0.70;;;;;;;;;;1768450;80;20997;-58
2022/01/29 04:03:18;;;;;;;1.75;0.50;;;;;;;;;;1759012;80;21304;-59
2022/01/29 04:05:44;;;;;;;0.70;0.60;;;;;;;;;;1763109;80;23039;-59
2022/01/29 04:08:17;;;;;;;0.98;0.90;;;;;;;;;;1771169;80;21270;-58
2022/01/29 04:10:42;;;;;;;0.70;0.70;;;;;;;;;;1765772;80;21358;-58
2022/01/29 04:13:11;;;;;;;0.68;0.68;;;;;;;;;;1764482;80;21403;-57
2022/01/29 04:15:36;;;;;;;0.68;0.68;;;;;;;;;;1754724;80;21407;-58
2022/01/29 04:18:03;;;;;;;0.78;0.70;;;;;;;;;;1758542;80;23842;-58
2022/01/29 04:20:30;;;;;;;1.20;0.78;;;;;;;;;;1761520;80;21837;-58
2022/01/29 04:22:56;;;;;;;0.80;0.80;;;;;;;;;;1757380;80;21387;-57
2022/01/29 04:25:23;;;;;;;0.98;0.62;;;;;;;;;;1770102;80;21708;-57
2022/01/29 04:27:49;;;;;;;3.40;0.53;;;;;;;;;;1757253;80;21486;-57
2022/01/29 04:30:28;;;;;;;1.12;0.78;;;;;;;;;;1758981;80;23212;-58
2022/01/29 04:33:24;;;;;;;0.47;0.42;;;;;;;;;;1770018;80;21457;-57
2022/01/29 04:35:17;;;;;;;0.82;0.80;;;;;;;;;;1762430;80;21379;-56
2022/01/29 04:37:43;;;;;;;1.05;0.93;;;;;;;;;;1765825;80;21792;-56
2022/01/29 04:40:10;;;;;;;0.70;0.70;;;;;;;;;;1767483;80;21366;-56
2022/01/29 04:42:37;;;;;;;0.85;0.80;;;;;;;;;;1759611;80;23453;-56
2022/01/29 04:45:03;;;;;;;0.80;0.60;;;;;;;;;;1762942;80;21493;-55
2022/01/29 04:47:29;;;;;;;0.60;0.60;;;;;;;;;;1763339;80;21457;-56
2022/01/29 04:49:56;;;;;;;0.85;0.75;;;;;;;;;;1749831;80;21976;-56
2022/01/29 04:52:22;;;;;;;0.70;0.60;;;;;;;;;;1754113;80;21432;-56
2022/01/29 04:54:48;;;;;;;2.17;0.80;;;;;;;;;;1752253;79;24126;-56
2022/01/29 04:57:15;;;;;;;0.50;0.50;;;;;;;;;;1758930;80;22458;-55
2022/01/29 04:59:41;;;;;;;0.62;0.50;;;;;;;;;;1758449;80;22505;-57
2022/01/29 05:02:07;;;;;;;0.82;0.72;;;;;;;;;;1753200;80;21563;-57
2022/01/29 05:04:33;;;;;;;0.88;0.50;;;;;;;;;;1746021;79;21462;-56
2022/01/29 05:07:00;;;;;;;0.88;0.80;;;;;;;;;;1748468;80;24059;-56
2022/01/29 05:09:26;;;;;;;0.55;0.55;;;;;;;;;;1754857;80;21572;-56
2022/01/29 05:11:53;;;;;;;0.53;0.53;;;;;;;;;;1752823;80;21517;-57
2022/01/29 05:14:33;;;;;;;1.07;0.85;;;;;;;;;;1743877;80;21981;-57
2022/01/29 05:27:35;;;;;;;1.35;0.70;;;;;;;;;;1757552;80;21993;-57
2022/01/29 05:30:02;;;;;;;0.90;0.80;;;;;;;;;;1759589;80;21486;-57
2022/01/29 05:32:28;;;;;;;0.90;0.90;;;;;;;;;;1743295;80;24125;-57
2022/01/29 05:34:54;;;;;;;1.10;1.00;;;;;;;;;;1753964;80;21484;-56
2022/01/29 05:37:20;;;;;;;1.30;1.20;;;;;;;;;;1740993;80;21410;-57
2022/01/29 05:39:47;;;;;;;1.22;0.98;;;;;;;;;;1747837;80;22274;-57
2022/01/29 05:42:13;;;;;;;0.80;0.80;;;;;;;;;;1743496;80;21506;-57
2022/01/29 05:44:39;;;;;;;0.70;0.65;;;;;;;;;;1751473;80;23734;-58
2022/01/29 05:47:05;;;;;;;0.93;0.80;;;;;;;;;;1749138;80;21469;-57
2022/01/29 05:49:32;;;;;;;0.60;0.60;;;;;;;;;;1754540;80;21435;-57
2022/01/29 05:51:58;;;;;;;0.50;0.50;;;;;;;;;;1743475;80;21538;-57
2022/01/29 05:54:24;;;;;;;1.10;1.00;;;;;;;;;;1747825;80;21352;-57
2022/01/29 05:56:51;;;;;;;0.90;0.78;;;;;;;;;;1748838;80;23825;-57
2022/01/29 05:59:17;;;;;;;1.10;0.80;;;;;;;;;;1755243;80;22321;-56
2022/01/29 06:01:43;;;;;;;1.00;0.90;;;;;;;;;;1746729;80;22094;-57
2022/01/29 06:04:09;;;;;;;1.02;0.80;;;;;;;;;;1734205;80;71772;-57
2022/01/29 06:06:37;;;;;;;0.93;0.70;;;;;;;;;;1708146;80;287025;-58
2022/01/29 06:09:04;;;;;;;0.60;0.60;;;;;;;;;;1661562;81;912889;-57
2022/01/29 06:11:32;;;;;;;0.68;0.68;;;;;;;;;;1578859;80;941572;-58
2022/01/29 06:13:58;;;;;;;0.80;0.60;;;;;;;;;;1639693;81;842482;-56
2022/01/29 06:16:24;;;;;;;0.82;0.80;;;;;;;;;;1569362;80;971905;-56
2022/01/29 06:18:52;;;;;;;;;;;;;;;;;;1575746;80;887140;-56
2022/01/29 06:21:19;;;;;;;2.50;0.93;;;;;;;;;;1686133;81;657530;-57
2022/01/29 06:23:45;;;;;;;1.42;0.70;;;;;;;;;;1751148;80;21526;-55
2022/01/29 06:26:11;;;;;;;0.78;0.75;;;;;;;;;;1743008;80;21532;-56
2022/01/29 06:28:38;;;;;;;1.27;0.80;;;;;;;;;;1744978;80;22277;-56
2022/01/29 06:31:07;;;;;;;0.88;0.85;;;;;;;;;;1741647;80;23730;-57
2022/01/29 06:33:33;;;;;;;1.67;0.70;;;;;;;;;;1747337;80;31652;-58
2022/01/29 06:35:59;;;;;;;1.30;1.00;;;;;;;;;;1745923;80;23893;-58
2022/01/29 06:38:25;;;;;;;1.22;0.80;;;;;;;;;;1747099;80;23675;-56
2022/01/29 06:40:52;;;;;;;1.15;0.90;;;;;;;;;;1746125;80;25917;-57
2022/01/29 06:43:18;;;;;;;1.10;0.70;;;;;;;;;;1746226;80;25281;-57
2022/01/29 06:45:44;;;;;;;1.67;1.05;;;;;;;;;;1732227;80;83832;-58
2022/01/29 06:48:11;;;;;;;2.50;1.17;;;;;;;;;;1729513;79;216119;-57
2022/01/29 06:50:37;;;;;;;1.27;1.07;;;;;;;;;;1743929;79;37769;-56
2022/01/29 06:53:04;;;;;;;1.05;0.80;;;;;;;;;;1748192;80;51367;-57
2022/01/29 06:55:30;;;;;;;2.83;1.35;;;;;;;;;;1749682;80;41881;-56
2022/01/29 06:57:58;;;;;;;1.77;1.30;;;;;;;;;;1679824;79;984226;-58
2022/01/29 07:00:24;;;;;;;1.67;1.50;;;;;;;;;;1517029;80;984251;-58
2022/01/29 07:02:50;;;;;;;1.45;1.35;;;;;;;;;;1509915;80;984502;-56
2022/01/29 07:05:16;;;;;;;1.98;1.67;;;;;;;;;;1509033;80;984040;-57
2022/01/29 07:07:42;;;;;;;1.60;1.40;;;;;;;;;;1510352;80;984237;-57
2022/01/29 07:10:09;;;;;;;1.42;1.20;;;;;;;;;;1505738;80;984313;-57
2022/01/29 07:12:39;;;;;;;1.30;1.20;;;;;;;;;;1505276;80;984492;-57
2022/01/29 07:15:06;;;;;;;1.77;1.52;;;;;;;;;;1511922;80;984692;-57
2022/01/29 07:17:32;;;;;;;1.70;1.34;;;;;;;;;;1511973;80;983971;-58
2022/01/29 07:19:58;;;;;;;2.10;1.90;;;;;;;;;;1500917;80;984264;-58
2022/01/29 07:22:24;;;;;;;1.22;1.12;;;;;;;;;;1740679;80;593259;-55
2022/01/29 07:24:50;;;;;;;1.40;1.30;;;;;;;;;;1751208;80;23643;-57
2022/01/29 07:27:16;;;;;;;2.20;1.62;;;;;;;;;;1742035;80;22895;-57
2022/01/29 07:29:43;;;;;;;4.22;0.98;;;;;;;;;;1752021;80;24548;-57
2022/01/29 07:32:09;;;;;;;1.65;0.93;;;;;;;;;;1752926;80;26707;-57
2022/01/29 07:34:35;;;;;;;2.70;1.60;;;;;;;;;;1751771;80;27621;-58
2022/01/29 07:37:02;;;;;;;1.90;1.20;;;;;;;;;;1757436;80;27610;-58
2022/01/29 07:39:28;;;;;;;1.22;1.00;;;;;;;;;;1747913;80;23298;-57
2022/01/29 07:41:55;;;;;;;1.30;1.07;;;;;;;;;;1748773;79;23071;-55
2022/01/29 07:44:22;;;;;;;1.60;1.40;;;;;;;;;;1742993;79;26490;-58
2022/01/29 07:46:48;;;;;;;1.52;1.20;;;;;;;;;;1745371;79;35915;-58
2022/01/29 07:49:14;;;;;;;1.35;1.12;;;;;;;;;;1741845;79;36615;-58
2022/01/29 07:51:40;;;;;;;1.90;1.30;;;;;;;;;;1753600;79;26948;-57
2022/01/29 07:54:06;;;;;;;1.98;1.60;;;;;;;;;;1764806;79;32714;-59
2022/01/29 07:56:33;;;;;;;1.45;1.35;;;;;;;;;;1753019;80;40783;-58
2022/01/29 07:58:59;;;;;;;2.12;1.37;;;;;;;;;;1748590;79;33762;-57
2022/01/29 08:01:25;;;;;;;2.52;1.10;;;;;;;;;;1751693;80;29002;-57
2022/01/29 08:03:52;;;;;;;1.57;1.05;;;;;;;;;;1718060;81;26362;-57
2022/01/29 08:06:19;;;;;;;1.40;1.00;;;;;;;;;;1718838;82;32626;-60
2022/01/29 08:08:46;;;;;;;1.15;1.00;;;;;;;;;;1717704;82;32057;-58
2022/01/29 08:11:12;;;;;;;1.35;0.90;;;;;;;;;;1683457;82;26425;-60
2022/01/29 08:13:38;;;;;;;1.55;1.22;;;;;;;;;;1682704;84;32620;-58
2022/01/29 08:16:05;;;;;;;1.65;0.98;;;;;;;;;;1723870;81;29268;-57
2022/01/29 08:18:31;;;;;;;1.07;0.90;;;;;;;;;;1718413;82;24410;-59
2022/01/29 08:20:59;;;;;;;1.87;1.02;;;;;;;;;;1678391;84;23523;-58
2022/01/29 08:23:25;;;;;;;1.37;1.15;;;;;;;;;;1690523;83;23866;-57
2022/01/29 08:25:51;;;;;;;3.05;1.45;;;;;;;;;;1696361;83;26798;-58
2022/01/29 08:28:18;;;;;;;1.67;1.57;;;;;;;;;;1688585;83;32452;-58
2022/01/29 08:30:44;;;;;;;1.20;1.05;;;;;;;;;;1698777;83;31626;-58
2022/01/29 08:33:17;;;;;;;;;;;;;;;;;;1701817;83;42727;-58
2022/01/29 08:35:39;;;;;;;1.10;0.82;;;;;;;;;;1692980;83;40284;-58
2022/01/29 08:38:05;;;;;;;1.00;0.90;;;;;;;;;;1684109;83;42719;-58
2022/01/29 08:40:32;;;;;;;3.10;1.13;;;;;;;;;;1686310;83;56152;-58
2022/01/29 08:42:59;;;;;;;3.58;0.90;;;;;;;;;;1698641;83;65725;-57
2022/01/29 08:45:25;;;;;;;1.27;1.12;;;;;;;;;;1723728;82;53330;-58
2022/01/29 08:47:51;;;;;;;2.10;1.50;;;;;;;;;;1723132;82;31544;-57
2022/01/29 08:50:17;;;;;;;1.25;1.15;;;;;;;;;;1710223;82;27169;-59
2022/01/29 08:52:43;;;;;;;2.05;1.50;;;;;;;;;;1718119;82;24531;-58
2022/01/29 08:55:10;;;;;;;2.30;1.22;;;;;;;;;;1709519;82;24002;-60
2022/01/29 08:57:36;;;;;;;2.27;1.30;;;;;;;;;;1717895;82;25227;-58
2022/01/29 09:00:06;;;;;;;2.08;1.72;;;;;;;;;;1712946;82;25104;-59
2022/01/29 09:02:32;;;;;;;4.08;2.70;;;;;;;;;;1696292;83;27497;-59
2022/01/29 09:04:58;;;;;;;4.50;2.87;;;;;;;;;;1720427;81;28836;-59
2022/01/29 09:07:26;;;;;;;3.17;1.50;;;;;;;;;;1726176;82;29178;-59
2022/01/29 09:09:52;;;;;;;;;;;;;;;;;;1766138;80;26683;-58
2022/01/29 09:12:18;;;;;;;1.67;1.57;;;;;;;;;;1760854;80;26778;-58
2022/01/29 09:14:44;;;;;;;1.77;1.45;;;;;;;;;;1758285;80;30769;-57
2022/01/29 09:17:10;;;;;;;6.62;1.55;;;;;;;;;;1756487;80;32522;-58
2022/01/29 09:19:36;;;;;;;1.72;1.37;;;;;;;;;;1752159;80;40424;-58
2022/01/29 09:22:03;;;;;;;1.70;1.47;;;;;;;;;;1750560;80;86677;-59
2022/01/29 09:24:30;;;;;;;3.17;1.70;;;;;;;;;;1730108;80;261471;-63
2022/01/29 09:26:56;;;;;;;2.47;1.80;;;;;;;;;;1708899;79;337500;-64
2022/01/29 09:29:23;;;;;;;1.03;1.00;;;;;;;;;;1731432;80;426267;-64
2022/01/29 09:31:49;;;;;;;1.87;1.27;;;;;;;;;;1585266;82;974506;-58
2022/01/29 09:34:15;;;;;;;2.13;1.30;;;;;;;;;;1513813;80;974631;-57
2022/01/29 09:36:42;;;;;;;2.17;1.50;;;;;;;;;;1602904;80;974644;-59
2022/01/29 09:39:08;;;;;;;2.87;1.87;;;;;;;;;;1518634;80;984289;-57
2022/01/29 09:41:34;;;;;;;4.43;2.23;;;;;;;;;;1507790;80;984586;-58
2022/01/29 09:44:00;;;;;;;2.55;1.75;;;;;;;;;;1506273;80;984278;-57
2022/01/29 09:46:27;;;;;;;6.93;2.67;;;;;;;;;;1518708;80;984048;-61
2022/01/29 09:48:54;;;;;;;1.72;1.25;;;;;;;;;;1518436;80;984440;-57
2022/01/29 09:51:20;;;;;;;1.90;1.57;;;;;;;;;;1513492;80;984332;-57
2022/01/29 09:53:46;;;;;;;2.20;1.47;;;;;;;;;;1522963;80;984603;-57
2022/01/29 09:56:13;;;;;;;2.08;1.60;;;;;;;;;;1518256;80;984314;-58
2022/01/29 09:58:39;;;;;;;1.60;1.07;;;;;;;;;;1514560;79;984274;-58
2022/01/29 10:01:05;;;;;;;1.42;1.30;;;;;;;;;;1509979;80;984084;-57
2022/01/29 10:03:32;;;;;;;1.95;1.30;;;;;;;;;;1510875;80;984000;-57
2022/01/29 10:06:00;;;;;;;2.13;1.40;;;;;;;;;;1627412;80;984384;-58
2022/01/29 10:08:26;;;;;;;1.80;1.32;;;;;;;;;;1518231;80;984269;-58
2022/01/29 10:10:57;;;;;;;1.36;1.16;;;;;;;;;;1516844;79;984312;-58
2022/01/29 10:13:37;;;;;;;1.64;1.36;;;;;;;;;;1519737;80;984301;-57
2022/01/29 10:16:18;;;;;;;1.56;1.30;;;;;;;;;;1510065;80;984297;-58
2022/01/29 10:18:48;;;;;;;2.76;1.64;;;;;;;;;;1520830;80;984062;-58
2022/01/29 10:21:19;;;;;;;3.06;1.84;;;;;;;;;;1514564;80;984059;-57
2022/01/29 10:23:45;;;;;;;2.06;1.56;;;;;;;;;;1520832;80;983873;-58
2022/01/29 10:26:29;;;;;;;3.25;2.05;;;;;;;;;;1517764;80;984889;-57
2022/01/29 10:28:55;;;;;;;3.10;1.56;;;;;;;;;;1515518;79;984192;-57
2022/01/29 10:31:22;;;;;;;2.08;1.77;;;;;;;;;;1508425;80;984334;-58
2022/01/29 10:33:48;;;;;;;2.30;1.72;;;;;;;;;;1511854;80;984304;-57
2022/01/29 10:36:15;;;;;;;2.10;1.52;;;;;;;;;;1520257;80;984269;-57
2022/01/29 10:38:43;;;;;;;2.42;1.78;;;;;;;;;;1512255;80;984264;-57
2022/01/29 10:41:26;;;;;;;1.56;1.28;;;;;;;;;;1518927;80;984334;-57
2022/01/29 10:43:56;;;;;;;2.22;1.24;;;;;;;;;;1512497;80;984545;-57
2022/01/29 10:46:26;;;;;;;1.84;1.12;;;;;;;;;;1514276;80;984188;-57
2022/01/29 10:48:54;;;;;;;1.54;1.42;;;;;;;;;;1517434;80;984099;-57
2022/01/29 10:51:20;;;;;;;2.70;1.34;;;;;;;;;;1510373;80;984539;-56
2022/01/29 10:53:47;;;;;;;9.35;5.17;;;;;;;;;;1513788;80;984102;-56
2022/01/29 10:56:13;;;;;;;9.45;4.70;;;;;;;;;;1604500;80;974644;-57
2022/01/29 10:58:40;;;;;;;6.13;3.40;;;;;;;;;;1566810;80;984443;-57
2022/01/29 11:01:12;;;;;;;3.43;2.53;;;;;;;;;;1510967;80;984302;-56
2022/01/29 11:03:39;;;;;;;2.45;1.55;;;;;;;;;;1512629;80;984220;-56
2022/01/29 11:06:07;;;;;;;6.78;2.92;;;;;;;;;;1512880;80;984041;-56
2022/01/29 11:08:33;;;;;;;;;;;;;;;;;;1502017;80;974921;-56
2022/01/29 11:11:00;;;;;;;7.20;2.87;;;;;;;;;;1511898;80;984388;-56
2022/01/29 11:13:27;;;;;;;2.72;1.77;;;;;;;;;;1509885;80;984165;-57
2022/01/29 11:15:56;;;;;;;3.65;1.62;;;;;;;;;;1503221;80;984415;-57
2022/01/29 11:18:24;;;;;;;2.50;1.00;;;;;;;;;;1508957;80;984091;-57
2022/01/29 11:20:51;;;;;;;2.05;1.47;;;;;;;;;;1503439;80;984207;-56
2022/01/29 11:23:17;;;;;;;3.22;1.60;;;;;;;;;;1508177;80;984060;-56
2022/01/29 11:25:43;;;;;;;7.20;2.33;;;;;;;;;;1508324;80;984047;-56
2022/01/29 11:28:11;;;;;;;2.15;1.77;;;;;;;;;;1505183;80;984277;-56
2022/01/29 11:30:37;;;;;;;;;;;;;;;;;;1513131;79;974658;-56
2022/01/29 11:33:03;;;;;;;1.80;1.45;;;;;;;;;;1493928;80;984240;-56
2022/01/29 11:35:34;;;;;;;2.50;1.22;;;;;;;;;;1505262;80;984049;-57
2022/01/29 11:38:06;;;;;;;2.60;1.72;;;;;;;;;;1508684;80;984501;-56
2022/01/29 11:40:37;;;;;;;3.00;1.90;;;;;;;;;;1504220;81;984317;-56
2022/01/29 11:43:06;;;;;;;2.85;1.80;;;;;;;;;;1501045;81;983749;-56
2022/01/29 11:45:49;;;;;;;3.60;1.90;;;;;;;;;;1503592;81;984311;-57
2022/01/29 11:48:28;;;;;;;1.67;1.40;;;;;;;;;;1495860;81;984112;-56
2022/01/29 11:50:58;;;;;;;1.77;1.32;;;;;;;;;;1467115;83;983997;-57
2022/01/29 11:53:25;;;;;;;1.87;1.50;;;;;;;;;;1499091;81;984036;-56
2022/01/29 11:55:52;;;;;;;2.77;1.98;;;;;;;;;;1506740;80;984095;-56
2022/01/29 11:58:20;;;;;;;1.90;1.62;;;;;;;;;;1503592;81;984233;-56
2022/01/29 12:00:48;;;;;;;2.72;1.90;;;;;;;;;;1502542;81;983812;-57
2022/01/29 12:03:14;;;;;;;;;;;;;;;;;;1466725;83;974770;-56
2022/01/29 12:05:42;;;;;;;3.27;2.20;;;;;;;;;;1449598;84;983530;-58
2022/01/29 12:08:16;;;;;;;3.90;2.20;;;;;;;;;;1503793;80;983970;-57
2022/01/29 12:10:42;;;;;;;2.60;2.00;;;;;;;;;;1463487;82;984141;-56
2022/01/29 12:13:08;;;;;;;2.33;2.00;;;;;;;;;;1466092;83;983876;-57
2022/01/29 12:15:35;;;;;;;2.28;2.06;;;;;;;;;;1503285;81;984124;-57
2022/01/29 12:18:04;;;;;;;3.92;2.12;;;;;;;;;;1498855;81;983785;-56
2022/01/29 12:20:31;;;;;;;3.08;1.72;;;;;;;;;;1502874;81;983732;-56
2022/01/29 12:22:59;;;;;;;4.95;1.65;;;;;;;;;;1501157;81;983535;-57
2022/01/29 12:25:28;;;;;;;3.32;2.00;;;;;;;;;;1506577;80;983806;-56
2022/01/29 12:27:59;;;;;;;3.33;1.70;;;;;;;;;;1503730;81;984026;-57
2022/01/29 12:30:27;;;;;;;2.77;1.42;;;;;;;;;;1514353;81;974218;-58
2022/01/29 12:32:58;;;;;;;1.77;1.47;;;;;;;;;;1540759;81;952176;-57
2022/01/29 12:35:41;;;;;;;1.60;1.47;;;;;;;;;;1688733;81;320387;-56
2022/01/29 12:38:08;;;;;;;6.20;2.03;;;;;;;;;;1724194;80;182112;-56
2022/01/29 12:40:38;;;;;;;2.27;1.30;;;;;;;;;;1737028;80;112104;-56
2022/01/29 12:43:10;;;;;;;1.37;1.17;;;;;;;;;;1674809;82;176532;-57
2022/01/29 12:45:31;;;;;;;3.60;1.53;;;;;;;;;;1694409;81;285957;-58
2022/01/29 12:48:10;;;;;;;1.83;1.40;;;;;;;;;;1696820;81;208607;-56
2022/01/29 12:50:36;;;;;;;2.60;1.40;;;;;;;;;;1724176;81;185798;-56
2022/01/29 12:53:13;;;;;;;2.55;1.67;;;;;;;;;;1741007;81;44946;-56
2022/01/29 12:55:39;;;;;;;3.70;1.72;;;;;;;;;;1746519;80;42400;-56
2022/01/29 12:58:06;;;;;;;1.92;1.50;;;;;;;;;;1734648;81;35271;-55
2022/01/29 13:00:33;;;;;;;3.27;1.57;;;;;;;;;;1736888;81;34961;-55
2022/01/29 13:03:07;;;;;;;2.12;1.57;;;;;;;;;;1742290;81;38072;-56
2022/01/29 13:05:41;;;;;;;1.67;1.27;;;;;;;;;;1735694;79;34437;-57
2022/01/29 13:08:08;;;;;;;3.15;1.85;;;;;;;;;;1734114;80;41087;-56
2022/01/29 13:10:35;;;;;;;4.10;1.52;;;;;;;;;;1739972;81;38937;-57
2022/01/29 13:13:02;;;;;;;2.25;1.30;;;;;;;;;;1703344;82;31128;-57
2022/01/29 13:15:36;;;;;;;2.40;1.65;;;;;;;;;;1746170;80;28045;-56
2022/01/29 13:18:02;;;;;;;1.80;1.40;;;;;;;;;;1737522;81;27608;-57
2022/01/29 13:20:29;;;;;;;1.60;1.17;;;;;;;;;;1734298;81;26188;-56
2022/01/29 13:22:55;;;;;;;2.65;1.60;;;;;;;;;;1749719;80;27123;-56
2022/01/29 13:25:23;;;;;;;1.90;1.47;;;;;;;;;;1736814;81;27186;-56
2022/01/29 13:27:53;;;;;;;;;;;;;;;;;;1720358;81;29553;-57
2022/01/29 13:30:21;;;;;;;4.87;2.00;;;;;;;;;;1746295;81;26913;-56
2022/01/29 13:32:49;;;;;;;2.75;1.80;;;;;;;;;;1736684;81;25873;-57
2022/01/29 13:35:21;;;;;;;4.67;2.05;;;;;;;;;;1743699;81;26094;-56
2022/01/29 13:37:56;;;;;;;4.87;2.62;;;;;;;;;;1750823;81;25126;-56
2022/01/29 13:40:20;;;;;;;3.60;2.35;;;;;;;;;;1728765;81;27348;-56
2022/01/29 13:42:53;;;;;;;3.70;2.10;;;;;;;;;;1733819;81;25097;-56
2022/01/29 13:45:22;;;;;;;2.65;1.90;;;;;;;;;;1739820;81;24090;-56
2022/01/29 13:47:59;;;;;;;2.62;1.77;;;;;;;;;;1746645;81;24126;-56
2022/01/29 13:50:27;;;;;;;1.80;1.45;;;;;;;;;;1734437;81;31563;-57
2022/01/29 13:53:01;;;;;;;2.08;1.40;;;;;;;;;;1743993;80;25486;-56
2022/01/29 13:55:28;;;;;;;2.20;1.60;;;;;;;;;;1742797;81;24887;-57
2022/01/29 13:57:59;;;;;;;2.50;1.50;;;;;;;;;;1744506;80;23240;-56
2022/01/29 14:00:25;;;;;;;3.75;1.90;;;;;;;;;;1745233;81;23481;-56
2022/01/29 14:02:52;;;;;;;4.58;1.67;;;;;;;;;;1744753;80;23595;-56
2022/01/29 14:05:27;;;;;;;1.57;1.12;;;;;;;;;;1742758;81;25549;-56
2022/01/29 14:07:52;;;;;;;1.45;1.05;;;;;;;;;;1743399;81;23210;-55
2022/01/29 14:10:19;;;;;;;2.20;1.60;;;;;;;;;;1716886;81;22957;-56
2022/01/29 14:12:46;;;;;;;3.15;1.80;;;;;;;;;;1750437;81;23447;-56
2022/01/29 14:15:13;;;;;;;;;;;;;;;;;;1748925;81;22732;-55
2022/01/29 14:17:40;;;;;;;2.05;1.40;;;;;;;;;;1748548;80;24945;-55
2022/01/29 14:20:07;;;;;;;1.98;1.30;;;;;;;;;;1737449;80;22604;-55
2022/01/29 14:22:39;;;;;;;1.40;1.05;;;;;;;;;;1736515;80;22694;-55
2022/01/29 14:25:06;;;;;;;1.47;1.00;;;;;;;;;;1737688;80;23081;-56
2022/01/29 14:27:33;;;;;;;1.62;1.00;;;;;;;;;;1741380;80;22634;-57
2022/01/29 14:30:00;;;;;;;1.55;0.90;;;;;;;;;;1740639;80;24590;-55
2022/01/29 14:32:26;;;;;;;1.47;1.22;;;;;;;;;;1743260;81;22898;-56
2022/01/29 14:34:53;;;;;;;1.05;0.90;;;;;;;;;;1743237;79;22210;-56
2022/01/29 14:37:19;;;;;;;1.37;1.10;;;;;;;;;;1742692;81;22797;-56
2022/01/29 14:39:47;;;;;;;1.55;1.15;;;;;;;;;;1750749;81;22215;-56
2022/01/29 14:42:16;;;;;;;1.62;1.17;;;;;;;;;;1739828;81;24499;-56
2022/01/29 14:44:44;;;;;;;1.72;1.20;;;;;;;;;;1702250;82;22811;-56
2022/01/29 14:47:10;;;;;;;;;;;;;;;;;;1749080;81;22224;-55
2022/01/29 14:49:36;;;;;;;1.90;0.90;;;;;;;;;;1752496;81;22763;-55
2022/01/29 14:52:04;;;;;;;2.65;1.00;;;;;;;;;;1740173;81;22126;-56
2022/01/29 14:54:31;;;;;;;2.22;1.07;;;;;;;;;;1743036;81;24350;-55
2022/01/29 14:56:57;;;;;;;1.60;1.10;;;;;;;;;;1747467;81;23199;-56
2022/01/29 14:59:23;;;;;;;2.02;1.20;;;;;;;;;;1709140;83;22451;-56
2022/01/29 15:01:50;;;;;;;2.83;1.70;;;;;;;;;;1744616;81;22726;-56
2022/01/29 15:04:16;;;;;;;1.65;1.20;;;;;;;;;;1740936;80;21956;-54
2022/01/29 15:06:42;;;;;;;2.58;1.35;;;;;;;;;;1750089;81;23961;-56
2022/01/29 15:09:09;;;;;;;2.40;1.42;;;;;;;;;;1743445;81;22310;-56
2022/01/29 15:11:35;;;;;;;2.87;1.92;;;;;;;;;;1743350;81;21598;-57
2022/01/29 15:14:02;;;;;;;2.62;1.70;;;;;;;;;;1747790;81;22414;-56
2022/01/29 15:16:28;;;;;;;5.20;1.92;;;;;;;;;;1740208;80;21601;-56
2022/01/29 15:18:55;;;;;;;2.25;1.75;;;;;;;;;;1740154;79;23736;-56
2022/01/29 15:21:22;;;;;;;2.77;1.47;;;;;;;;;;1748167;80;22337;-56
2022/01/29 15:23:48;;;;;;;2.17;1.52;;;;;;;;;;1745080;79;21428;-56
2022/01/29 15:26:14;;;;;;;1.45;1.15;;;;;;;;;;1749850;80;22377;-57
2022/01/29 15:28:40;;;;;;;2.62;1.60;;;;;;;;;;1746139;80;21504;-57
2022/01/29 15:31:07;;;;;;;1.77;1.40;;;;;;;;;;1742443;81;23866;-56
2022/01/29 15:33:34;;;;;;;1.43;1.27;;;;;;;;;;1740894;81;22082;-56
2022/01/29 15:36:05;;;;;;;1.20;1.10;;;;;;;;;;1750406;80;22118;-57
2022/01/29 15:38:33;;;;;;;4.58;1.40;;;;;;;;;;1737111;81;22113;-57
2022/01/29 15:41:00;;;;;;;2.77;1.42;;;;;;;;;;1707498;82;21487;-56
2022/01/29 15:43:26;;;;;;;1.60;1.37;;;;;;;;;;1708151;83;23646;-56
2022/01/29 15:45:52;;;;;;;1.72;1.30;;;;;;;;;;1746808;81;21843;-56
2022/01/29 15:48:20;;;;;;;1.72;0.93;;;;;;;;;;1745448;81;21507;-56
2022/01/29 15:50:46;;;;;;;1.90;1.00;;;;;;;;;;1746894;80;22510;-56
2022/01/29 15:53:12;;;;;;;1.52;0.85;;;;;;;;;;1752824;81;21511;-56
2022/01/29 15:55:39;;;;;;;1.65;0.80;;;;;;;;;;1750166;81;24130;-56
2022/01/29 15:58:06;;;;;;;1.67;1.10;;;;;;;;;;1731987;81;21792;-56
2022/01/29 16:00:38;;;;;;;1.03;0.87;;;;;;;;;;1747113;81;21482;-56
2022/01/29 16:05:18;;;;;;;1.20;0.98;;;;;;;;;;1767016;78;22720;-57
2022/01/29 16:07:45;;;;;;;2.75;0.95;;;;;;;;;;1744880;80;21454;-57
2022/01/29 16:10:11;;;;;;;1.52;1.10;;;;;;;;;;1748232;80;23755;-57
2022/01/29 16:12:37;;;;;;;1.02;0.90;;;;;;;;;;1746789;80;21931;-57
2022/01/29 16:15:04;;;;;;;1.15;1.05;;;;;;;;;;1742724;80;21493;-56
2022/01/29 16:17:31;;;;;;;2.52;1.40;;;;;;;;;;1750460;80;21445;-57
2022/01/29 16:19:57;;;;;;;1.87;1.03;;;;;;;;;;1748187;80;21418;-57
2022/01/29 16:22:23;;;;;;;2.15;1.32;;;;;;;;;;1748191;80;23101;-57
2022/01/29 16:24:49;;;;;;;1.50;1.40;;;;;;;;;;1751619;80;21558;-56
2022/01/29 16:27:20;;;;;;;1.55;1.20;;;;;;;;;;1748768;80;21429;-57
2022/01/29 16:29:44;;;;;;;1.35;0.90;;;;;;;;;;1745056;80;21532;-56
2022/01/29 16:32:12;;;;;;;1.47;1.07;;;;;;;;;;1744821;80;21577;-57
2022/01/29 16:34:39;;;;;;;1.75;1.17;;;;;;;;;;1744683;80;23066;-57
2022/01/29 16:37:05;;;;;;;1.35;1.00;;;;;;;;;;1744295;80;21586;-56
2022/01/29 16:39:32;;;;;;;7.20;1.85;;;;;;;;;;1746022;80;21399;-57
2022/01/29 16:41:58;;;;;;;2.62;1.52;;;;;;;;;;1739695;80;21588;-57
2022/01/29 16:44:24;;;;;;;1.52;1.10;;;;;;;;;;1750267;80;21364;-57
2022/01/29 16:46:50;;;;;;;1.50;1.10;;;;;;;;;;1742557;80;23103;-57
2022/01/29 16:49:16;;;;;;;2.12;1.15;;;;;;;;;;1749947;80;21562;-57
2022/01/29 16:51:43;;;;;;;1.32;0.80;;;;;;;;;;1743270;80;21465;-57
2022/01/29 16:54:09;;;;;;;1.22;0.98;;;;;;;;;;1755152;80;21591;-56
2022/01/29 16:56:36;;;;;;;3.65;1.50;;;;;;;;;;1750723;79;21398;-57
2022/01/29 16:59:03;;;;;;;1.60;1.05;;;;;;;;;;1750764;80;23102;-55
2022/01/29 17:01:29;;;;;;;1.82;1.27;;;;;;;;;;1742169;80;21480;-55
2022/01/29 17:03:55;;;;;;;1.98;1.10;;;;;;;;;;1740922;81;21503;-54
2022/01/29 17:06:21;;;;;;;1.70;1.35;;;;;;;;;;1740070;80;21400;-56
2022/01/29 17:08:48;;;;;;;1.92;1.32;;;;;;;;;;1740086;81;20954;-57
2022/01/29 17:11:14;;;;;;;1.42;1.30;;;;;;;;;;1739449;81;21994;-57
2022/01/29 17:13:44;;;;;;;1.95;1.60;;;;;;;;;;1735970;81;21414;-57
2022/01/29 17:16:13;;;;;;;1.87;1.40;;;;;;;;;;1739728;81;21418;-57
2022/01/29 17:18:40;;;;;;;3.52;2.30;;;;;;;;;;1737668;80;21229;-58
2022/01/29 17:21:07;;;;;;;3.20;1.47;;;;;;;;;;1738901;81;21486;-57
2022/01/29 17:23:33;;;;;;;2.17;1.30;;;;;;;;;;1739380;81;23412;-58
2022/01/29 17:26:03;;;;;;;2.05;1.40;;;;;;;;;;1739484;81;20941;-57
2022/01/29 17:28:29;;;;;;;4.80;1.20;;;;;;;;;;1738438;81;20945;-58
2022/01/29 17:30:57;;;;;;;3.10;1.32;;;;;;;;;;1740267;80;21416;-57
2022/01/29 17:33:24;;;;;;;1.30;1.20;;;;;;;;;;1735249;81;21405;-58
2022/01/29 17:35:51;;;;;;;1.95;0.93;;;;;;;;;;1741450;80;23116;-57
2022/01/29 17:38:18;;;;;;;3.50;1.90;;;;;;;;;;1746688;81;21596;-55
2022/01/29 17:40:44;;;;;;;2.35;1.62;;;;;;;;;;1737643;81;21395;-55
2022/01/29 17:43:11;;;;;;;3.70;2.10;;;;;;;;;;1740337;80;21601;-55
2022/01/29 17:45:37;;;;;;;2.22;1.87;;;;;;;;;;1741865;80;21399;-55
2022/01/29 17:48:04;;;;;;;3.05;1.87;;;;;;;;;;1741928;80;23343;-56
2022/01/29 17:50:31;;;;;;;3.05;1.57;;;;;;;;;;1741468;81;21380;-56
2022/01/29 17:53:00;;;;;;;2.10;1.45;;;;;;;;;;1740149;80;21421;-57
2022/01/29 17:55:34;;;;;;;3.62;1.92;;;;;;;;;;1737653;79;21482;-55
2022/01/29 17:57:56;;;;;;;2.77;1.60;;;;;;;;;;1741506;80;21427;-56
2022/01/29 18:00:22;;;;;;;4.10;2.20;;;;;;;;;;1740043;80;23336;-56
2022/01/29 18:02:48;;;;;;;5.37;2.30;;;;;;;;;;1749526;80;21343;-55
2022/01/29 18:05:15;;;;;;;2.00;1.60;;;;;;;;;;1740319;80;21459;-55
2022/01/29 18:07:41;;;;;;;3.27;2.02;;;;;;;;;;1741477;80;21211;-57
2022/01/29 18:10:07;;;;;;;2.15;1.82;;;;;;;;;;1741710;80;21375;-56
2022/01/29 18:12:35;;;;;;;3.10;2.37;;;;;;;;;;1745943;80;21622;-57
2022/01/29 18:15:02;;;;;;;3.10;2.33;;;;;;;;;;1740682;80;21489;-57
2022/01/29 18:17:29;;;;;;;3.08;2.35;;;;;;;;;;1751105;80;21453;-57
2022/01/29 18:19:55;;;;;;;3.25;2.00;;;;;;;;;;1742127;80;21446;-56
2022/01/29 18:22:21;;;;;;;4.72;2.20;;;;;;;;;;1740902;80;21419;-57
2022/01/29 18:24:47;;;;;;;1.85;1.30;;;;;;;;;;1739691;80;23004;-56
2022/01/29 18:27:20;;;;;;;2.15;1.75;;;;;;;;;;1742605;80;21364;-58
2022/01/29 18:29:42;;;;;;;3.25;1.77;;;;;;;;;;1740273;80;21490;-56
2022/01/29 18:32:08;;;;;;;2.77;1.52;;;;;;;;;;1745130;80;21517;-57
2022/01/29 18:34:36;;;;;;;3.58;1.75;;;;;;;;;;1739427;81;21359;-57
2022/01/29 18:37:02;;;;;;;3.60;1.42;;;;;;;;;;1741876;81;22993;-57
2022/01/29 18:39:29;;;;;;;3.30;1.47;;;;;;;;;;1740892;80;21415;-56
2022/01/29 18:41:55;;;;;;;2.60;1.50;;;;;;;;;;1738457;81;21064;-58